createdAt,value
2018-10-19T00:01:56.208Z,82.87
2018-10-19T00:04:24.285Z,75.43
2018-10-19T00:06:52.361Z,101.07
2018-10-19T00:09:20.530Z,80.17
2018-10-19T00:11:48.591Z,89.53
2018-10-19T00:14:16.670Z,87.00
2018-10-19T00:16:44.732Z,94.67
2018-10-19T00:19:12.800Z,79.10
2018-10-19T00:21:41.158Z,93.17
2018-10-19T00:24:09.263Z,96.33
2018-10-19T00:26:37.349Z,87.30
2018-10-19T00:29:05.745Z,71.20
2018-10-19T00:31:33.780Z,87.67
2018-10-19T00:34:01.863Z,94.93
2018-10-19T00:36:29.916Z,86.27
2018-10-19T00:38:58.069Z,67.10
2018-10-19T00:41:26.168Z,83.40
2018-10-19T00:43:54.254Z,82.87
2018-10-19T00:46:22.299Z,91.63
2018-10-19T00:48:50.396Z,90.87
2018-10-19T00:51:18.506Z,66.60
2018-10-19T00:53:46.953Z,88.63
2018-10-19T00:56:15.018Z,81.87
2018-10-19T00:58:43.070Z,87.33
2018-10-19T01:01:11.158Z,78.80
2018-10-19T01:03:39.239Z,83.27
2018-10-19T01:06:07.310Z,68.77
2018-10-19T01:08:35.384Z,69.87
2018-10-19T01:11:03.547Z,69.27
2018-10-19T01:13:31.733Z,78.53
2018-10-19T01:15:59.795Z,69.27
2018-10-19T01:18:27.880Z,65.60
2018-10-19T01:20:56.997Z,69.33
2018-10-19T01:23:25.038Z,83.97
2018-10-19T01:25:53.100Z,64.20
2018-10-19T01:28:21.183Z,68.60
2018-10-19T01:30:49.255Z,78.73
2018-10-19T01:33:17.320Z,58.60
2018-10-19T01:35:45.507Z,78.73
2018-10-19T01:38:13.559Z,87.37
2018-10-19T01:40:41.682Z,67.03
2018-10-19T01:43:09.816Z,72.43
2018-10-19T01:45:42.188Z,66.07
2018-10-19T01:48:10.371Z,67.37
2018-10-19T01:50:38.439Z,73.80
2018-10-19T01:53:06.507Z,72.97
2018-10-19T01:55:34.636Z,65.07
2018-10-19T01:58:02.895Z,95.97
2018-10-19T02:00:31.028Z,55.03
2018-10-19T02:02:59.167Z,76.33
2018-10-19T02:05:27.300Z,65.40
2018-10-19T02:07:55.455Z,56.57
2018-10-19T02:10:23.539Z,58.93
2018-10-19T02:12:51.708Z,57.50
2018-10-19T02:15:19.824Z,48.77
2018-10-19T02:17:47.995Z,42.63
2018-10-19T02:20:16.111Z,36.17
2018-10-19T02:22:44.207Z,44.10
2018-10-19T02:25:12.669Z,41.07
2018-10-19T02:27:41.496Z,39.03
2018-10-19T02:30:09.656Z,40.50
2018-10-19T02:32:37.858Z,47.47
2018-10-19T02:35:06.099Z,31.80
2018-10-19T02:37:34.374Z,29.50
2018-10-19T02:40:02.753Z,23.17
2018-10-19T02:42:30.812Z,31.50
2018-10-19T02:44:59.119Z,26.37
2018-10-19T02:48:51.842Z,31.70
2018-10-19T02:51:20.025Z,32.80
2018-10-19T02:53:48.103Z,31.20
2018-10-19T02:56:16.174Z,29.13
2018-10-19T02:58:44.467Z,34.40
2018-10-19T03:01:12.632Z,31.70
2018-10-19T03:03:40.692Z,31.77
2018-10-19T03:06:08.980Z,30.40
2018-10-19T03:08:37.067Z,37.20
2018-10-19T03:11:05.564Z,34.03
2018-10-19T03:13:33.785Z,36.20
2018-10-19T03:16:01.887Z,23.90
2018-10-19T03:18:30.032Z,28.67
2018-10-19T03:20:58.158Z,34.70
2018-10-19T03:23:26.313Z,30.27
2018-10-19T03:25:54.469Z,29.30
2018-10-19T03:28:22.559Z,28.30
2018-10-19T03:30:50.944Z,42.17
2018-10-19T03:33:19.023Z,37.80
2018-10-19T03:35:47.082Z,26.70
2018-10-19T03:38:15.244Z,30.27
2018-10-19T03:40:43.303Z,23.10
2018-10-19T03:43:11.396Z,29.97
2018-10-19T03:45:39.548Z,43.50
2018-10-19T03:48:07.625Z,43.93
2018-10-19T03:50:35.704Z,37.47
2018-10-19T03:53:03.807Z,43.10
2018-10-19T03:55:31.891Z,40.77
2018-10-19T03:58:00.018Z,37.47
2018-10-19T04:00:28.096Z,37.17
2018-10-19T04:02:56.420Z,31.93
2018-10-19T04:05:25.236Z,59.57
2018-10-19T04:07:53.383Z,29.73
2018-10-19T04:10:21.823Z,50.33
2018-10-19T04:12:49.945Z,55.57
2018-10-19T04:15:18.896Z,49.00
2018-10-19T04:17:46.952Z,56.13
2018-10-19T04:20:15.038Z,63.53
2018-10-19T04:22:43.213Z,63.23
2018-10-19T04:25:11.371Z,75.17
2018-10-19T04:27:39.516Z,52.60
2018-10-19T04:30:08.030Z,70.30
2018-10-19T04:32:36.095Z,65.47
2018-10-19T04:35:04.531Z,90.77
2018-10-19T04:37:32.878Z,74.47
2018-10-19T04:40:01.088Z,55.37
2018-10-19T04:42:29.216Z,79.80
2018-10-19T04:44:57.407Z,69.53
2018-10-19T04:47:25.556Z,62.43
2018-10-19T04:49:53.663Z,73.77
2018-10-19T04:52:21.804Z,82.97
2018-10-19T04:54:50.536Z,76.33
2018-10-19T04:57:18.828Z,74.23
2018-10-19T04:59:47.663Z,116.17
2018-10-19T05:02:15.859Z,97.77
2018-10-19T05:04:44.059Z,94.23
2018-10-19T05:07:12.088Z,99.57
2018-10-19T05:09:40.192Z,85.10
2018-10-19T05:12:08.584Z,92.17
2018-10-19T05:14:36.695Z,83.60
2018-10-19T05:17:05.156Z,88.77
2018-10-19T05:19:33.267Z,109.37
2018-10-19T05:22:01.422Z,87.47
2018-10-19T05:24:29.526Z,105.47
2018-10-19T05:26:57.672Z,80.47
2018-10-19T05:29:25.819Z,98.60
2018-10-19T05:31:53.922Z,93.67
2018-10-19T05:34:22.000Z,91.77
2018-10-19T05:36:50.070Z,90.80
2018-10-19T05:39:18.154Z,73.83
2018-10-19T05:41:46.226Z,82.37
2018-10-19T05:44:14.301Z,72.50
2018-10-19T05:46:42.472Z,65.17
2018-10-19T05:49:10.534Z,86.23
2018-10-19T05:51:38.595Z,76.63
2018-10-19T05:54:06.720Z,72.10
2018-10-19T05:56:34.903Z,89.13
2018-10-19T05:59:03.054Z,78.90
2018-10-19T06:01:31.200Z,75.07
2018-10-19T06:03:59.286Z,72.73
2018-10-19T06:06:27.585Z,77.20
2018-10-19T06:08:56.022Z,78.57
2018-10-19T06:11:24.087Z,74.73
2018-10-19T06:13:52.183Z,86.23
2018-10-19T06:16:20.461Z,107.77
2018-10-19T06:18:48.536Z,71.80
2018-10-19T06:21:16.741Z,78.40
2018-10-19T06:23:44.934Z,101.40
2018-10-19T06:26:13.168Z,92.17
2018-10-19T06:28:41.236Z,76.53
2018-10-19T06:31:09.409Z,82.27
2018-10-19T06:33:37.509Z,88.37
2018-10-19T06:36:05.591Z,82.63
2018-10-19T06:38:33.726Z,110.07
2018-10-19T06:41:01.869Z,102.77
2018-10-19T06:43:29.973Z,124.50
2018-10-19T06:45:59.015Z,129.17
2018-10-19T06:48:27.141Z,119.70
2018-10-19T06:50:55.204Z,125.17
2018-10-19T06:53:23.274Z,108.23
2018-10-19T06:55:51.364Z,112.23
2018-10-19T06:58:19.543Z,105.70
2018-10-19T07:00:47.695Z,117.03
2018-10-19T07:03:15.771Z,104.57
2018-10-19T07:05:43.888Z,91.27
2018-10-19T07:08:11.981Z,113.67
2018-10-19T07:10:40.112Z,114.50
2018-10-19T07:13:08.255Z,114.53
2018-10-19T07:15:36.403Z,120.57
2018-10-19T07:18:05.105Z,107.97
2018-10-19T07:20:33.192Z,98.70
2018-10-19T07:23:01.315Z,104.13
2018-10-19T07:25:29.323Z,136.37
2018-10-19T07:27:57.496Z,114.77
2018-10-19T07:30:25.572Z,103.60
2018-10-19T07:32:53.691Z,89.37
2018-10-19T07:35:21.828Z,88.80
2018-10-19T07:37:49.931Z,91.40
2018-10-19T07:40:18.072Z,75.60
2018-10-19T07:42:46.159Z,71.00
2018-10-19T07:45:14.324Z,72.10
2018-10-19T07:47:42.577Z,69.20
2018-10-19T07:50:10.688Z,62.73
2018-10-19T07:52:39.674Z,51.73
2018-10-19T07:55:08.974Z,43.03
2018-10-19T07:57:37.060Z,53.60
2018-10-19T08:00:06.066Z,62.13
2018-10-19T08:02:34.225Z,46.47
2018-10-19T08:05:02.387Z,53.73
2018-10-19T08:07:30.496Z,59.67
2018-10-19T08:09:59.069Z,65.43
2018-10-19T08:12:27.219Z,71.93
2018-10-19T08:14:55.590Z,78.37
2018-10-19T08:17:23.710Z,91.63
2018-10-19T08:19:51.875Z,68.90
2018-10-19T08:22:20.219Z,91.87
2018-10-19T08:24:49.620Z,72.80
2018-10-19T08:27:17.747Z,62.57
2018-10-19T08:29:45.908Z,68.93
2018-10-19T08:32:14.155Z,63.10
2018-10-19T08:34:42.220Z,74.90
2018-10-19T08:37:10.282Z,54.33
2018-10-19T08:39:38.365Z,58.60
2018-10-19T08:42:06.951Z,55.60
2018-10-19T08:44:35.143Z,39.23
2018-10-19T08:47:03.451Z,48.23
2018-10-19T08:49:31.568Z,59.43
2018-10-19T08:51:59.828Z,69.00
2018-10-19T08:54:27.925Z,42.43
2018-10-19T08:56:55.988Z,48.57
2018-10-19T08:59:24.136Z,46.67
2018-10-19T09:01:52.275Z,45.20
2018-10-19T09:04:20.405Z,30.60
2018-10-19T09:06:48.485Z,33.07
2018-10-19T09:09:16.595Z,28.77
2018-10-19T09:11:44.683Z,31.30
2018-10-19T09:14:24.233Z,52.37
2018-10-19T09:16:52.354Z,31.07
2018-10-19T09:19:20.529Z,29.73
2018-10-19T09:21:48.580Z,21.67
2018-10-19T09:24:16.671Z,32.53
2018-10-19T09:26:45.023Z,43.80
2018-10-19T09:29:14.224Z,36.03
2018-10-19T09:31:42.180Z,27.03
2018-10-19T09:34:10.291Z,42.33
2018-10-19T09:36:38.736Z,37.03
2018-10-19T09:39:09.419Z,27.43
2018-10-19T09:41:37.555Z,40.60
2018-10-19T09:44:05.671Z,37.30
2018-10-19T09:46:34.107Z,36.07
2018-10-19T09:49:02.251Z,26.80
2018-10-19T09:51:30.478Z,39.57
2018-10-19T09:53:58.588Z,29.63
2018-10-19T09:56:26.753Z,30.43
2018-10-19T09:58:54.978Z,25.80
2018-10-19T10:01:29.355Z,34.47
2018-10-19T10:03:57.539Z,37.23
2018-10-19T10:06:25.705Z,42.87
2018-10-19T10:08:53.882Z,50.53
2018-10-19T10:11:22.191Z,54.67
2018-10-19T10:13:50.352Z,42.90
2018-10-19T10:16:18.663Z,32.00
2018-10-19T10:18:46.761Z,34.03
2018-10-19T10:21:14.933Z,43.20
2018-10-19T10:23:43.455Z,35.10
2018-10-19T10:26:11.769Z,29.33
2018-10-19T10:28:39.927Z,31.13
2018-10-19T10:31:08.285Z,26.70
2018-10-19T10:33:36.355Z,30.10
2018-10-19T10:36:04.689Z,39.30
2018-10-19T10:38:33.060Z,28.67
2018-10-19T10:41:01.633Z,27.17
2018-10-19T10:43:29.804Z,25.23
2018-10-19T10:45:58.051Z,34.50
2018-10-19T10:48:26.224Z,43.10
2018-10-19T10:50:54.751Z,39.13
2018-10-19T10:53:22.823Z,31.50
2018-10-19T10:55:50.951Z,28.73
2018-10-19T10:58:19.076Z,30.30
2018-10-19T11:00:47.160Z,36.40
2018-10-19T11:03:15.383Z,44.90
2018-10-19T11:05:43.492Z,39.37
2018-10-19T11:08:11.654Z,37.63
2018-10-19T11:10:40.047Z,31.17
2018-10-19T11:13:08.188Z,49.47
2018-10-19T11:15:36.405Z,37.13
2018-10-19T11:18:04.731Z,38.33
2018-10-19T11:20:32.967Z,32.27
2018-10-19T11:23:01.256Z,45.03
2018-10-19T11:25:29.460Z,40.93
2018-10-19T11:27:57.629Z,42.83
2018-10-19T11:30:25.739Z,56.70
2018-10-19T11:32:53.828Z,45.10
2018-10-19T11:35:22.001Z,64.60
2018-10-19T11:37:50.251Z,69.03
2018-10-19T11:40:29.695Z,64.30
2018-10-19T11:42:58.117Z,46.77
2018-10-19T11:45:27.531Z,49.10
2018-10-19T11:47:55.656Z,41.77
2018-10-19T11:50:23.729Z,54.17
2018-10-19T11:52:51.972Z,38.77
2018-10-19T11:55:20.221Z,53.40
2018-10-19T11:57:49.070Z,62.07
2018-10-19T12:00:17.354Z,46.03
2018-10-19T12:02:45.545Z,40.90
2018-10-19T12:05:13.728Z,43.70
2018-10-19T12:07:42.313Z,43.53
2018-10-19T12:10:11.815Z,43.30
2018-10-19T12:12:40.298Z,36.70
2018-10-19T12:15:09.599Z,48.87
2018-10-19T12:17:38.083Z,44.07
2018-10-19T12:20:08.087Z,30.73
2018-10-19T12:22:36.434Z,29.60
2018-10-19T12:25:05.178Z,53.07
2018-10-19T12:27:33.320Z,44.57
2018-10-19T12:30:01.419Z,34.63
2018-10-19T12:32:29.576Z,39.27
2018-10-19T12:34:57.839Z,45.97
2018-10-19T12:37:26.094Z,43.40
2018-10-19T12:39:54.295Z,115.47
2018-10-19T12:42:22.359Z,51.93
2018-10-19T12:44:50.489Z,57.70
2018-10-19T12:47:35.158Z,53.30
2018-10-19T12:50:03.460Z,31.77
2018-10-19T12:52:31.576Z,55.30
2018-10-19T12:54:59.840Z,63.07
2018-10-19T12:57:28.017Z,43.73
2018-10-19T12:59:56.484Z,39.27
2018-10-19T13:02:24.593Z,52.70
2018-10-19T13:04:52.756Z,58.03
2018-10-19T13:07:21.022Z,51.83
2018-10-19T13:09:49.288Z,44.40
2018-10-19T13:12:17.432Z,68.27
2018-10-19T13:14:45.575Z,65.60
2018-10-19T13:17:13.736Z,52.23
2018-10-19T13:19:41.901Z,50.60
2018-10-19T13:22:10.154Z,70.50
2018-10-19T13:24:38.316Z,43.90
2018-10-19T13:27:06.530Z,63.70
2018-10-19T13:29:34.602Z,63.67
2018-10-19T13:32:03.776Z,68.80
2018-10-19T13:34:32.026Z,53.93
2018-10-19T13:37:00.235Z,46.50
2018-10-19T13:39:28.347Z,55.00
2018-10-19T13:41:56.619Z,63.37
2018-10-19T13:44:24.898Z,74.30
2018-10-19T13:46:53.593Z,59.77
2018-10-19T13:49:22.800Z,77.70
2018-10-19T13:51:51.292Z,53.03
2018-10-19T13:54:19.443Z,69.97
2018-10-19T13:56:47.599Z,61.63
2018-10-19T13:59:15.855Z,81.20
2018-10-19T14:01:43.980Z,66.80
2018-10-19T14:04:12.081Z,76.20
2018-10-19T14:06:40.211Z,59.43
2018-10-19T14:09:09.143Z,61.60
2018-10-19T14:11:37.621Z,63.57
2018-10-19T14:14:05.703Z,69.30
2018-10-19T14:16:33.979Z,76.50
2018-10-19T14:19:02.299Z,84.27
2018-10-19T14:21:30.546Z,56.77
2018-10-19T14:23:58.825Z,48.37
2018-10-19T14:26:26.896Z,76.17
2018-10-19T14:28:55.231Z,47.97
2018-10-19T14:31:23.647Z,80.77
2018-10-19T14:33:51.830Z,71.80
2018-10-19T14:36:20.089Z,84.70
2018-10-19T14:38:48.252Z,68.07
2018-10-19T14:41:16.399Z,54.53
2018-10-19T14:43:44.421Z,63.13
2018-10-19T14:46:12.710Z,50.60
2018-10-19T14:48:41.105Z,60.70
2018-10-19T14:51:09.518Z,61.73
2018-10-19T14:53:37.627Z,65.60
2018-10-19T14:56:05.802Z,56.77
2018-10-19T14:58:33.936Z,78.57
2018-10-19T15:01:02.099Z,66.27
2018-10-19T15:03:31.071Z,51.37
2018-10-19T15:05:59.244Z,51.33
2018-10-19T15:08:27.451Z,35.47
2018-10-19T15:10:55.728Z,44.43
2018-10-19T15:13:23.936Z,59.23
2018-10-19T15:15:52.056Z,38.00
2018-10-19T15:18:20.311Z,61.00
2018-10-19T15:20:48.377Z,42.10
2018-10-19T15:23:16.564Z,38.17
2018-10-19T15:25:44.712Z,42.67
2018-10-19T15:28:12.832Z,50.03
2018-10-19T15:30:40.975Z,49.50
2018-10-19T15:33:09.281Z,40.47
2018-10-19T15:35:37.408Z,51.23
2018-10-19T15:38:05.520Z,58.93
2018-10-19T15:40:33.713Z,70.47
2018-10-19T15:43:01.844Z,50.83
2018-10-19T15:45:29.933Z,69.97
2018-10-19T15:47:58.200Z,73.13
2018-10-19T15:50:26.247Z,50.93
2018-10-19T15:52:54.408Z,55.13
2018-10-19T15:55:22.524Z,54.57
2018-10-19T15:57:50.728Z,56.17
2018-10-19T16:00:18.939Z,53.57
2018-10-19T16:02:46.973Z,54.17
2018-10-19T16:05:15.098Z,51.07
2018-10-19T16:07:43.185Z,44.30
2018-10-19T16:10:11.549Z,61.23
2018-10-19T16:12:39.641Z,51.33
2018-10-19T16:15:08.919Z,37.27
2018-10-19T16:17:37.005Z,53.00
2018-10-19T16:20:06.996Z,38.93
2018-10-19T16:22:35.093Z,50.53
2018-10-19T16:25:03.323Z,65.17
2018-10-19T16:27:31.524Z,36.57
2018-10-19T16:29:59.803Z,54.13
2018-10-19T16:32:27.872Z,44.60
2018-10-19T16:34:55.964Z,44.50
2018-10-19T16:37:24.199Z,52.20
2018-10-19T16:39:52.283Z,37.00
2018-10-19T16:42:20.453Z,38.57
2018-10-19T16:44:48.572Z,38.50
2018-10-19T16:47:16.768Z,46.13
2018-10-19T16:49:44.941Z,34.97
2018-10-19T16:52:13.198Z,35.23
2018-10-19T16:54:41.315Z,42.87
2018-10-19T16:57:09.557Z,37.00
2018-10-19T16:59:37.993Z,43.50
2018-10-19T17:02:06.128Z,44.13
2018-10-19T17:04:35.381Z,45.67
2018-10-19T17:07:03.512Z,41.90
2018-10-19T17:09:31.712Z,39.60
2018-10-19T17:11:59.897Z,41.23
2018-10-19T17:14:28.008Z,55.23
2018-10-19T17:16:56.300Z,46.43
2018-10-19T17:19:24.502Z,64.63
2018-10-19T17:21:52.643Z,49.47
2018-10-19T17:24:20.956Z,43.00
2018-10-19T17:26:48.999Z,36.40
2018-10-19T17:29:17.266Z,43.83
2018-10-19T17:31:45.513Z,54.20
2018-10-19T17:34:13.703Z,41.10
2018-10-19T17:36:41.907Z,43.73
2018-10-19T17:39:10.916Z,49.30
2018-10-19T17:41:39.051Z,58.87
2018-10-19T17:44:07.617Z,38.87
2018-10-19T17:46:35.887Z,39.00
2018-10-19T17:49:04.230Z,36.27
2018-10-19T17:51:34.008Z,59.37
2018-10-19T17:54:02.312Z,33.67
2018-10-19T17:56:30.401Z,34.93
2018-10-19T17:58:58.555Z,36.43
2018-10-19T18:01:26.693Z,60.67
2018-10-19T18:03:54.890Z,38.80
2018-10-19T18:06:23.042Z,46.80
2018-10-19T18:08:51.281Z,46.10
2018-10-19T18:11:19.411Z,39.77
2018-10-19T18:13:47.564Z,31.93
2018-10-19T18:16:15.783Z,52.40
2018-10-19T18:18:44.102Z,40.47
2018-10-19T18:21:12.334Z,36.30
2018-10-19T18:23:40.625Z,96.67
2018-10-19T18:26:08.863Z,39.03
2018-10-19T18:28:37.892Z,51.47
2018-10-19T18:31:06.012Z,45.27
2018-10-19T18:33:34.196Z,38.63
2018-10-19T18:36:02.506Z,36.10
2018-10-19T18:38:30.700Z,36.10
2018-10-19T18:40:58.830Z,44.27
2018-10-19T18:43:27.033Z,37.83
2018-10-19T18:45:55.172Z,41.50
2018-10-19T18:48:26.307Z,42.67
2018-10-19T18:50:55.035Z,40.03
2018-10-19T18:53:23.217Z,37.83
2018-10-19T18:55:51.333Z,38.40
2018-10-19T18:58:19.532Z,39.63
2018-10-19T19:00:47.808Z,40.97
2018-10-19T19:03:16.282Z,59.33
2018-10-19T19:05:44.443Z,56.50
2018-10-19T19:08:12.828Z,41.67
2018-10-19T19:10:41.078Z,49.13
2018-10-19T19:13:14.661Z,41.00
2018-10-19T19:15:42.892Z,33.17
2018-10-19T19:18:11.264Z,54.50
2018-10-19T19:20:39.783Z,51.97
2018-10-19T19:23:08.124Z,38.17
2018-10-19T19:25:41.737Z,34.10
2018-10-19T19:28:09.968Z,51.70
2018-10-19T19:30:38.149Z,35.77
2018-10-19T19:33:11.776Z,35.90
2018-10-19T19:35:40.109Z,48.23
2018-10-19T19:38:08.296Z,34.33
2018-10-19T19:40:42.059Z,43.60
2018-10-19T19:43:10.272Z,49.13
2018-10-19T19:45:38.480Z,63.13
2018-10-19T19:48:12.103Z,44.87
2018-10-19T19:50:40.329Z,39.53
2018-10-19T19:53:08.476Z,36.50
2018-10-19T19:55:36.837Z,50.50
2018-10-19T19:58:05.345Z,42.30
2018-10-19T20:00:34.040Z,51.13
2018-10-19T20:03:02.768Z,34.40
2018-10-19T20:05:30.939Z,49.10
2018-10-19T20:07:59.448Z,55.03
2018-10-19T20:10:28.188Z,43.03
2018-10-19T20:12:56.424Z,45.77
2018-10-19T20:15:24.564Z,34.93
2018-10-19T20:17:52.748Z,41.60
2018-10-19T20:20:20.927Z,38.70
2018-10-19T20:22:49.219Z,47.10
2018-10-19T20:25:17.432Z,46.30
2018-10-19T20:27:45.553Z,47.03
2018-10-19T20:30:14.231Z,33.67
2018-10-19T20:32:42.411Z,47.63
2018-10-19T20:35:11.187Z,39.50
2018-10-19T20:37:39.382Z,49.23
2018-10-19T20:40:10.771Z,42.83
2018-10-19T20:42:38.891Z,50.13
2018-10-19T20:45:07.222Z,43.80
2018-10-19T20:47:35.355Z,53.70
2018-10-19T20:50:03.787Z,61.77
2018-10-19T20:52:31.984Z,38.10
2018-10-19T20:55:00.174Z,41.50
2018-10-19T20:57:28.399Z,45.73
2018-10-19T20:59:56.589Z,50.07
2018-10-19T21:02:26.341Z,61.47
2018-10-19T21:04:54.565Z,52.17
2018-10-19T21:07:22.983Z,68.57
2018-10-19T21:09:51.217Z,50.37
2018-10-19T21:12:20.035Z,59.20
2018-10-19T21:14:48.235Z,64.97
2018-10-19T21:17:16.534Z,57.73
2018-10-19T21:19:44.710Z,45.53
2018-10-19T21:22:13.059Z,75.33
2018-10-19T21:24:41.395Z,42.63
2018-10-19T21:27:09.851Z,54.57
2018-10-19T21:29:37.999Z,47.37
2018-10-19T21:32:07.256Z,70.30
2018-10-19T21:34:35.397Z,42.13
2018-10-19T21:37:04.461Z,39.97
2018-10-19T21:39:32.747Z,36.83
2018-10-19T21:42:01.317Z,48.80
2018-10-19T21:44:29.806Z,57.00
2018-10-19T21:47:06.827Z,44.50
2018-10-19T21:49:39.143Z,50.73
2018-10-19T21:52:08.557Z,42.13
2018-10-19T21:54:36.839Z,47.70
2018-10-19T21:57:05.253Z,53.60
2018-10-19T21:59:33.370Z,47.47
2018-10-19T22:02:01.682Z,51.30
2018-10-19T22:04:29.852Z,46.90
2018-10-19T22:06:58.051Z,41.77
2018-10-19T22:09:26.203Z,47.57
2018-10-19T22:11:54.492Z,47.87
2018-10-19T22:14:22.661Z,55.87
2018-10-19T22:16:50.860Z,48.80
2018-10-19T22:19:19.021Z,41.60
2018-10-19T22:21:47.200Z,59.03
2018-10-19T22:24:15.444Z,42.10
2018-10-19T22:26:43.617Z,69.83
2018-10-19T22:29:11.947Z,51.63
2018-10-19T22:31:39.984Z,51.83
2018-10-19T22:34:08.217Z,63.33
2018-10-19T22:36:36.296Z,62.97
2018-10-19T22:39:05.692Z,61.87
2018-10-19T22:41:33.776Z,93.27
2018-10-19T22:44:01.841Z,69.80
2018-10-19T22:46:29.967Z,75.43
2018-10-19T22:48:58.110Z,57.17
2018-10-19T22:51:26.408Z,61.53
2018-10-19T22:53:54.577Z,68.87
2018-10-19T22:56:22.846Z,67.83
2018-10-19T22:58:51.011Z,57.27
2018-10-19T23:01:19.207Z,61.57
2018-10-19T23:03:47.353Z,57.13
2018-10-19T23:06:15.536Z,54.70
2018-10-19T23:08:43.917Z,59.20
2018-10-19T23:11:12.102Z,53.17
2018-10-19T23:13:40.313Z,49.57
2018-10-19T23:16:08.444Z,39.70
2018-10-19T23:18:36.677Z,58.40
2018-10-19T23:21:04.965Z,49.17
2018-10-19T23:23:33.072Z,44.87
2018-10-19T23:26:01.300Z,44.93
2018-10-19T23:28:29.546Z,53.30
2018-10-19T23:30:57.752Z,43.60
2018-10-19T23:33:25.972Z,49.97
2018-10-19T23:35:54.139Z,43.43
2018-10-19T23:38:22.336Z,42.40
2018-10-19T23:40:50.485Z,66.93
2018-10-19T23:43:18.692Z,55.33
2018-10-19T23:45:46.835Z,60.90
2018-10-19T23:48:15.022Z,55.73
2018-10-19T23:50:43.215Z,68.83
2018-10-19T23:53:11.482Z,40.00
2018-10-19T23:55:39.535Z,42.73
2018-10-19T23:58:07.699Z,45.87
